createdAt,value
2019-03-28T00:01:25.679Z,8.70
2019-03-28T00:03:55.560Z,8.70
2019-03-28T00:06:39.902Z,8.60
2019-03-28T00:09:09.593Z,8.60
2019-03-28T00:11:39.155Z,8.70
2019-03-28T00:14:09.007Z,8.60
2019-03-28T00:16:38.728Z,8.60
2019-03-28T00:19:08.292Z,8.60
2019-03-28T00:21:38.293Z,8.60
2019-03-28T00:24:29.447Z,8.60
2019-03-28T00:26:59.046Z,8.60
2019-03-28T00:29:29.109Z,8.60
2019-03-28T00:31:58.784Z,8.60
2019-03-28T00:34:29.227Z,8.60
2019-03-28T00:36:58.900Z,8.60
2019-03-28T00:39:28.594Z,8.60
2019-03-28T00:41:58.193Z,8.50
2019-03-28T00:44:28.643Z,8.60
2019-03-28T00:46:58.294Z,8.60
2019-03-28T00:49:31.213Z,8.60
2019-03-28T00:52:01.102Z,8.60
2019-03-28T00:54:30.676Z,8.60
2019-03-28T00:57:01.146Z,8.60
2019-03-28T00:59:37.295Z,8.60
2019-03-28T01:02:11.622Z,8.60
2019-03-28T01:04:42.870Z,8.60
2019-03-28T01:07:13.387Z,8.60
2019-03-28T01:09:43.959Z,8.60
2019-03-28T01:12:14.403Z,8.60
2019-03-28T01:14:44.176Z,8.60
2019-03-28T01:17:13.793Z,8.60
2019-03-28T01:19:43.766Z,8.60
2019-03-28T01:22:13.333Z,8.60
2019-03-28T01:24:43.536Z,8.50
2019-03-28T01:27:13.531Z,8.60
2019-03-28T01:29:43.122Z,8.60
2019-03-28T01:32:13.966Z,8.60
2019-03-28T01:34:43.578Z,8.60
2019-03-28T01:37:13.137Z,8.60
2019-03-28T01:39:49.488Z,8.60
2019-03-28T01:42:18.995Z,8.60
2019-03-28T01:44:48.835Z,8.60
2019-03-28T01:47:19.187Z,8.50
2019-03-28T01:49:49.046Z,8.50
2019-03-28T01:52:19.051Z,8.60
2019-03-28T01:54:48.894Z,8.50
2019-03-28T01:57:18.453Z,8.50
2019-03-28T01:59:48.007Z,8.50
2019-03-28T02:02:18.015Z,8.50
2019-03-28T02:07:23.142Z,8.50
2019-03-28T02:09:52.977Z,8.50
2019-03-28T02:12:24.847Z,8.50
2019-03-28T02:14:54.697Z,8.50
2019-03-28T02:17:24.309Z,8.50
2019-03-28T02:19:53.871Z,8.50
2019-03-28T02:22:23.757Z,8.50
2019-03-28T02:24:53.295Z,8.40
2019-03-28T02:27:24.708Z,8.40
2019-03-28T02:29:54.351Z,8.40
2019-03-28T02:32:26.221Z,8.40
2019-03-28T02:34:57.410Z,8.40
2019-03-28T02:37:27.225Z,8.40
2019-03-28T02:39:56.951Z,8.40
2019-03-28T02:42:27.798Z,8.30
2019-03-28T02:44:57.697Z,8.30
2019-03-28T02:47:27.565Z,8.30
2019-03-28T02:49:57.076Z,8.30
2019-03-28T02:52:27.928Z,8.20
2019-03-28T02:54:58.061Z,8.20
2019-03-28T02:57:41.094Z,8.20
2019-03-28T02:59:59.578Z,8.20
2019-03-28T03:02:29.102Z,8.20
2019-03-28T03:04:59.048Z,8.10
2019-03-28T03:07:28.599Z,8.10
2019-03-28T03:09:59.072Z,8.10
2019-03-28T03:12:28.713Z,8.10
2019-03-28T03:14:58.661Z,8.10
2019-03-28T03:17:28.203Z,8.10
2019-03-28T03:20:00.863Z,8.10
2019-03-28T03:22:30.489Z,8.10
2019-03-28T03:25:00.069Z,8.10
2019-03-28T03:27:33.197Z,8.10
2019-03-28T03:30:04.084Z,8.10
2019-03-28T03:32:33.746Z,8.10
2019-03-28T03:35:06.374Z,8.10
2019-03-28T03:37:35.835Z,8.20
2019-03-28T03:40:06.527Z,8.20
2019-03-28T03:42:36.174Z,8.20
2019-03-28T03:45:06.561Z,8.20
2019-03-28T03:47:36.661Z,8.20
2019-03-28T03:50:07.260Z,8.20
2019-03-28T03:52:36.926Z,8.20
2019-03-28T03:55:06.852Z,8.20
2019-03-28T03:57:36.557Z,8.20
2019-03-28T04:00:06.998Z,8.30
2019-03-28T04:02:36.660Z,8.20
2019-03-28T04:05:07.270Z,8.20
2019-03-28T04:07:38.853Z,8.20
2019-03-28T04:10:09.337Z,8.10
2019-03-28T04:12:40.250Z,8.10
2019-03-28T04:15:09.937Z,8.10
2019-03-28T04:17:40.313Z,8.10
2019-03-28T04:20:16.367Z,8.10
2019-03-28T04:22:47.112Z,8.10
2019-03-28T04:25:16.678Z,8.10
2019-03-28T04:27:46.843Z,8.10
2019-03-28T04:30:17.803Z,8.10
2019-03-28T04:32:47.398Z,8.10
2019-03-28T04:35:17.855Z,8.10
2019-03-28T04:37:48.630Z,8.10
2019-03-28T04:40:18.713Z,8.00
2019-03-28T04:42:48.905Z,8.00
2019-03-28T04:45:20.612Z,8.00
2019-03-28T04:47:51.821Z,7.90
2019-03-28T04:50:21.464Z,7.90
2019-03-28T04:52:52.930Z,7.90
2019-03-28T04:55:22.252Z,7.90
2019-03-28T04:57:52.212Z,7.90
2019-03-28T05:00:23.098Z,7.80
2019-03-28T05:02:53.024Z,7.80
2019-03-28T05:05:22.614Z,7.90
2019-03-28T05:07:52.098Z,7.80
2019-03-28T05:10:22.034Z,7.90
2019-03-28T05:12:51.893Z,7.90
2019-03-28T05:15:22.791Z,7.90
2019-03-28T05:17:52.350Z,7.90
2019-03-28T05:20:22.346Z,7.90
2019-03-28T05:22:53.040Z,8.00
2019-03-28T05:25:22.947Z,8.00
2019-03-28T05:27:52.930Z,8.00
2019-03-28T05:30:25.661Z,8.00
2019-03-28T05:32:55.194Z,8.10
2019-03-28T05:35:24.761Z,8.10
2019-03-28T05:37:54.976Z,8.10
2019-03-28T05:40:27.891Z,8.20
2019-03-28T05:42:58.153Z,8.20
2019-03-28T05:45:27.712Z,8.20
2019-03-28T05:48:00.214Z,8.20
2019-03-28T05:50:29.123Z,8.20
2019-03-28T05:52:58.665Z,8.20
2019-03-28T05:55:32.003Z,8.30
2019-03-28T05:58:01.966Z,8.30
2019-03-28T06:00:31.563Z,8.30
2019-03-28T06:03:01.489Z,8.40
2019-03-28T06:05:32.701Z,8.40
2019-03-28T06:08:02.770Z,8.40
2019-03-28T06:10:32.336Z,8.40
2019-03-28T06:13:01.915Z,8.40
2019-03-28T06:15:31.460Z,8.50
2019-03-28T06:18:01.178Z,8.50
2019-03-28T06:20:31.434Z,8.50
2019-03-28T06:23:01.045Z,8.50
2019-03-28T06:25:31.014Z,8.60
2019-03-28T06:28:00.639Z,8.60
2019-03-28T06:30:30.700Z,8.60
2019-03-28T06:33:01.140Z,8.70
2019-03-28T06:35:31.075Z,8.70
2019-03-28T06:38:04.404Z,8.70
2019-03-28T06:40:34.008Z,8.80
2019-03-28T06:43:04.613Z,8.80
2019-03-28T06:45:35.004Z,8.90
2019-03-28T06:48:04.677Z,8.80
2019-03-28T06:50:34.330Z,8.90
2019-03-28T06:53:04.378Z,8.90
2019-03-28T06:55:36.772Z,8.80
2019-03-28T06:58:05.664Z,8.90
2019-03-28T07:00:35.330Z,8.90
2019-03-28T07:03:09.324Z,8.90
2019-03-28T07:05:40.232Z,8.90
2019-03-28T07:08:10.645Z,9.00
2019-03-28T07:10:40.249Z,9.00
2019-03-28T07:13:10.416Z,9.00
2019-03-28T07:15:40.629Z,9.00
2019-03-28T07:18:11.214Z,9.10
2019-03-28T07:20:41.107Z,9.10
2019-03-28T07:23:16.781Z,9.10
2019-03-28T07:25:47.466Z,9.10
2019-03-28T07:28:20.989Z,9.10
2019-03-28T07:30:50.742Z,9.10
2019-03-28T07:33:20.359Z,9.10
2019-03-28T07:35:50.470Z,9.00
2019-03-28T07:38:20.894Z,9.00
2019-03-28T07:40:50.701Z,9.00
2019-03-28T07:43:21.512Z,9.10
2019-03-28T07:45:51.112Z,9.10
2019-03-28T07:48:21.027Z,9.10
2019-03-28T07:50:50.992Z,9.10
2019-03-28T07:53:21.529Z,9.10
2019-03-28T07:55:51.531Z,9.20
2019-03-28T07:58:21.100Z,9.30
2019-03-28T08:00:52.260Z,9.30
2019-03-28T08:03:21.786Z,9.20
2019-03-28T08:05:51.422Z,9.20
2019-03-28T08:08:21.005Z,9.10
2019-03-28T08:10:50.578Z,9.10
2019-03-28T08:13:20.953Z,9.20
2019-03-28T08:15:50.511Z,9.20
2019-03-28T08:20:57.058Z,9.20
2019-03-28T08:23:27.181Z,9.10
2019-03-28T08:25:57.100Z,9.10
2019-03-28T08:28:26.768Z,9.20
2019-03-28T08:30:59.937Z,9.10
2019-03-28T08:33:31.843Z,9.10
2019-03-28T08:36:03.506Z,9.10
2019-03-28T08:38:35.309Z,9.10
2019-03-28T08:41:07.122Z,9.10
2019-03-28T08:43:36.656Z,9.10
2019-03-28T08:46:08.747Z,9.20
2019-03-28T08:48:38.214Z,9.20
2019-03-28T08:51:08.812Z,9.30
2019-03-28T08:53:38.299Z,9.30
2019-03-28T08:56:07.955Z,9.40
2019-03-28T08:58:38.516Z,9.50
2019-03-28T09:01:08.343Z,9.50
2019-03-28T09:03:38.080Z,9.40
2019-03-28T09:06:08.044Z,9.30
2019-03-28T09:08:41.054Z,9.30
2019-03-28T09:11:10.920Z,9.30
2019-03-28T09:13:44.910Z,9.30
2019-03-28T09:16:18.056Z,9.20
2019-03-28T09:18:48.130Z,9.20
2019-03-28T09:21:19.295Z,9.20
2019-03-28T09:23:55.341Z,9.30
2019-03-28T09:26:24.992Z,9.20
2019-03-28T09:28:55.301Z,9.20
2019-03-28T09:31:25.651Z,9.20
2019-03-28T09:33:55.242Z,9.20
2019-03-28T09:36:25.169Z,9.20
2019-03-28T09:38:54.730Z,9.30
2019-03-28T09:41:27.616Z,9.30
2019-03-28T09:43:57.815Z,9.30
2019-03-28T09:46:28.211Z,9.30
2019-03-28T09:48:58.006Z,9.30
2019-03-28T09:51:27.601Z,9.40
2019-03-28T09:53:57.445Z,9.40
2019-03-28T09:56:27.169Z,9.50
2019-03-28T09:59:00.144Z,9.60
2019-03-28T10:01:31.667Z,9.60
2019-03-28T10:04:01.221Z,9.70
2019-03-28T10:06:33.753Z,9.70
2019-03-28T10:09:04.161Z,9.70
2019-03-28T10:11:37.666Z,9.70
2019-03-28T10:14:08.877Z,9.90
2019-03-28T10:16:40.473Z,10.10
2019-03-28T10:19:10.191Z,10.20
2019-03-28T10:21:41.054Z,10.30
2019-03-28T10:24:11.567Z,10.40
2019-03-28T10:26:41.209Z,10.40
2019-03-28T10:29:14.166Z,10.40
2019-03-28T10:31:44.309Z,10.40
2019-03-28T10:34:14.148Z,10.40
2019-03-28T10:36:45.104Z,10.30
2019-03-28T10:39:14.701Z,10.30
2019-03-28T10:41:48.983Z,10.20
2019-03-28T10:44:18.898Z,10.30
2019-03-28T10:46:49.247Z,10.40
2019-03-28T10:49:19.229Z,10.40
2019-03-28T10:51:48.877Z,10.60
2019-03-28T10:54:20.785Z,10.60
2019-03-28T10:56:52.328Z,10.60
2019-03-28T10:59:23.805Z,10.70
2019-03-28T11:01:54.597Z,10.80
2019-03-28T11:04:25.024Z,10.80
2019-03-28T11:06:54.645Z,10.90
2019-03-28T11:09:24.401Z,11.00
2019-03-28T11:12:05.646Z,10.90
2019-03-28T11:14:35.902Z,11.00
2019-03-28T11:17:07.124Z,10.90
2019-03-28T11:19:36.743Z,10.80
2019-03-28T11:22:06.471Z,10.80
2019-03-28T11:24:37.179Z,10.70
2019-03-28T11:27:10.361Z,10.70
2019-03-28T11:29:39.959Z,10.70
2019-03-28T11:32:09.639Z,10.60
2019-03-28T11:34:39.510Z,10.60
2019-03-28T11:37:14.916Z,10.60
2019-03-28T11:39:40.515Z,10.60
2019-03-28T11:42:10.489Z,10.60
2019-03-28T11:44:41.271Z,10.60
2019-03-28T11:47:11.359Z,10.70
2019-03-28T11:49:40.961Z,10.70
2019-03-28T11:52:10.991Z,10.80
2019-03-28T11:54:40.940Z,10.80
2019-03-28T11:57:10.942Z,10.80
2019-03-28T11:59:40.630Z,10.90
2019-03-28T12:04:45.838Z,10.90
2019-03-28T12:07:15.333Z,10.80
2019-03-28T12:09:44.897Z,10.80
2019-03-28T12:12:16.268Z,10.80
2019-03-28T12:14:45.819Z,10.90
2019-03-28T12:17:15.829Z,10.80
2019-03-28T12:19:45.699Z,10.80
2019-03-28T12:22:15.765Z,10.80
2019-03-28T12:24:45.335Z,10.70
2019-03-28T12:27:14.865Z,10.70
2019-03-28T12:29:44.925Z,10.60
2019-03-28T12:32:14.725Z,10.60
2019-03-28T12:34:47.559Z,10.60
2019-03-28T12:37:17.679Z,10.50
2019-03-28T12:39:47.473Z,10.60
2019-03-28T12:42:18.639Z,10.60
2019-03-28T12:44:56.983Z,10.60
2019-03-28T12:47:19.926Z,10.60
2019-03-28T12:49:50.337Z,10.60
2019-03-28T12:52:19.955Z,10.60
2019-03-28T12:54:54.693Z,10.60
2019-03-28T12:57:29.136Z,10.70
2019-03-28T13:00:02.590Z,10.70
2019-03-28T13:02:35.514Z,10.70
2019-03-28T13:05:06.209Z,10.80
2019-03-28T13:07:35.811Z,10.80
2019-03-28T13:10:06.764Z,10.80
2019-03-28T13:12:36.378Z,10.80
2019-03-28T13:15:07.090Z,10.80
2019-03-28T13:17:37.018Z,10.80
2019-03-28T13:20:07.836Z,10.80
2019-03-28T13:22:37.481Z,10.80
2019-03-28T13:25:08.764Z,10.80
2019-03-28T13:27:41.379Z,10.80
2019-03-28T13:30:11.853Z,10.80
2019-03-28T13:32:42.553Z,10.80
2019-03-28T13:35:14.556Z,10.80
2019-03-28T13:37:47.298Z,10.70
2019-03-28T13:40:19.166Z,10.70
2019-03-28T13:42:48.622Z,10.80
2019-03-28T13:45:18.554Z,10.80
2019-03-28T13:47:54.329Z,10.80
2019-03-28T13:50:24.601Z,10.80
2019-03-28T13:52:55.656Z,10.80
2019-03-28T13:55:25.145Z,10.80
2019-03-28T13:57:54.580Z,10.80
2019-03-28T14:00:34.961Z,10.80
2019-03-28T14:03:05.426Z,10.80
2019-03-28T14:05:35.289Z,10.80
2019-03-28T14:08:08.494Z,10.90
2019-03-28T14:10:39.421Z,10.90
2019-03-28T14:13:09.341Z,10.90
2019-03-28T14:15:40.729Z,10.90
2019-03-28T14:18:10.878Z,11.00
2019-03-28T14:20:41.862Z,11.00
2019-03-28T14:23:11.797Z,11.00
2019-03-28T14:25:41.570Z,11.00
2019-03-28T14:28:11.136Z,11.00
2019-03-28T14:30:41.100Z,11.00
2019-03-28T14:33:15.857Z,11.10
2019-03-28T14:35:44.482Z,11.10
2019-03-28T14:38:14.761Z,11.10
2019-03-28T14:40:47.803Z,11.20
2019-03-28T14:43:17.639Z,11.30
2019-03-28T14:45:47.290Z,11.30
2019-03-28T14:48:16.665Z,11.40
2019-03-28T14:50:47.216Z,11.40
2019-03-28T14:53:16.991Z,11.40
2019-03-28T14:55:51.820Z,11.50
2019-03-28T14:58:23.576Z,11.40
2019-03-28T15:00:54.253Z,11.40
2019-03-28T15:03:27.038Z,11.50
2019-03-28T15:05:55.190Z,11.50
2019-03-28T15:08:27.961Z,11.60
2019-03-28T15:10:58.855Z,11.60
2019-03-28T15:13:29.150Z,11.60
2019-03-28T15:15:59.047Z,11.60
2019-03-28T15:18:32.089Z,11.50
2019-03-28T15:21:01.817Z,11.60
2019-03-28T15:23:32.917Z,11.60
2019-03-28T15:26:02.816Z,11.60
2019-03-28T15:28:32.347Z,11.60
2019-03-28T15:31:03.348Z,11.60
2019-03-28T15:33:39.664Z,11.70
2019-03-28T15:36:05.119Z,11.70
2019-03-28T15:38:35.560Z,11.70
2019-03-28T15:41:06.015Z,11.70
2019-03-28T15:43:35.865Z,11.70
2019-03-28T15:46:06.013Z,11.70
2019-03-28T15:48:35.994Z,11.70
2019-03-28T15:51:06.800Z,11.70
2019-03-28T15:53:36.467Z,11.70
2019-03-28T15:56:06.920Z,11.70
2019-03-28T15:58:36.400Z,11.60
2019-03-28T16:01:07.820Z,11.60
2019-03-28T16:03:37.890Z,11.60
2019-03-28T16:06:07.942Z,11.60
2019-03-28T16:08:38.085Z,11.70
2019-03-28T16:11:08.109Z,11.70
2019-03-28T16:13:37.968Z,11.60
2019-03-28T16:16:08.594Z,11.60
2019-03-28T16:18:39.527Z,11.60
2019-03-28T16:21:11.960Z,11.70
2019-03-28T16:23:44.820Z,11.60
2019-03-28T16:26:14.319Z,11.60
2019-03-28T16:28:43.906Z,11.60
2019-03-28T16:31:22.049Z,11.60
2019-03-28T16:34:05.844Z,11.60
2019-03-28T16:36:24.472Z,11.60
2019-03-28T16:38:56.375Z,11.60
2019-03-28T16:41:25.919Z,11.60
2019-03-28T16:43:55.475Z,11.60
2019-03-28T16:46:28.519Z,11.50
2019-03-28T16:49:00.003Z,11.60
2019-03-28T16:51:29.445Z,11.60
2019-03-28T16:53:59.032Z,11.60
2019-03-28T16:56:28.871Z,11.50
2019-03-28T16:59:01.742Z,11.50
2019-03-28T17:01:31.270Z,11.50
2019-03-28T17:04:00.933Z,11.40
2019-03-28T17:06:34.309Z,11.30
2019-03-28T17:09:05.070Z,11.30
2019-03-28T17:11:34.887Z,11.30
2019-03-28T17:14:06.272Z,11.30
2019-03-28T17:16:36.185Z,11.30
2019-03-28T17:19:05.971Z,11.30
2019-03-28T17:21:35.429Z,11.30
2019-03-28T17:24:05.307Z,11.20
2019-03-28T17:26:35.126Z,11.20
2019-03-28T17:29:04.702Z,11.10
2019-03-28T17:31:40.926Z,11.00
2019-03-28T17:34:10.539Z,11.00
2019-03-28T17:36:43.055Z,11.00
2019-03-28T17:39:12.587Z,10.90
2019-03-28T17:41:42.993Z,10.90
2019-03-28T17:44:14.475Z,10.80
2019-03-28T17:46:44.848Z,10.80
2019-03-28T17:49:15.001Z,10.70
2019-03-28T17:51:45.618Z,10.70
2019-03-28T17:54:15.103Z,10.60
2019-03-28T17:56:44.933Z,10.60
2019-03-28T17:59:14.602Z,10.50
2019-03-28T18:01:44.200Z,10.50
2019-03-28T18:04:22.814Z,10.50
2019-03-28T18:06:48.136Z,10.50
2019-03-28T18:09:19.628Z,10.40
2019-03-28T18:11:50.118Z,10.40
2019-03-28T18:14:20.136Z,10.40
2019-03-28T18:16:50.456Z,10.30
2019-03-28T18:19:20.211Z,10.30
2019-03-28T18:22:02.463Z,10.30
2019-03-28T18:24:20.958Z,10.30
2019-03-28T18:26:50.414Z,10.20
2019-03-28T18:29:20.176Z,10.20
2019-03-28T18:31:52.394Z,10.20
2019-03-28T18:34:23.664Z,10.20
2019-03-28T18:36:56.395Z,10.20
2019-03-28T18:39:29.159Z,10.20
2019-03-28T18:41:59.457Z,10.20
2019-03-28T18:44:29.579Z,10.20
2019-03-28T18:47:01.139Z,10.20
2019-03-28T18:49:31.791Z,10.10
2019-03-28T18:52:07.252Z,10.10
2019-03-28T18:54:37.590Z,10.10
2019-03-28T18:57:08.049Z,10.10
2019-03-28T18:59:39.283Z,10.00
2019-03-28T19:02:08.782Z,10.10
2019-03-28T19:04:38.592Z,10.00
2019-03-28T19:07:09.268Z,10.00
2019-03-28T19:09:40.006Z,9.90
2019-03-28T19:12:10.266Z,9.90
2019-03-28T19:14:39.730Z,9.90
2019-03-28T19:17:11.581Z,9.90
2019-03-28T19:19:41.037Z,9.90
2019-03-28T19:22:11.662Z,9.80
2019-03-28T19:24:41.226Z,9.80
2019-03-28T19:27:10.822Z,9.70
2019-03-28T19:29:40.715Z,9.70
2019-03-28T19:32:11.230Z,9.60
2019-03-28T19:34:41.154Z,9.50
2019-03-28T19:37:10.686Z,9.40
2019-03-28T19:39:44.561Z,9.40
2019-03-28T19:42:14.277Z,9.30
2019-03-28T19:44:45.481Z,9.20
2019-03-28T19:47:15.570Z,9.10
2019-03-28T19:49:45.106Z,9.00
2019-03-28T19:52:14.681Z,8.90
2019-03-28T19:54:45.099Z,8.80
2019-03-28T19:57:14.550Z,8.70
2019-03-28T19:59:47.588Z,8.60
2019-03-28T20:02:17.929Z,8.50
2019-03-28T20:04:47.513Z,8.50
2019-03-28T20:07:21.928Z,8.40
2019-03-28T20:09:48.237Z,8.30
2019-03-28T20:12:17.912Z,8.20
2019-03-28T20:14:48.433Z,8.10
2019-03-28T20:17:18.053Z,8.10
2019-03-28T20:19:47.746Z,8.00
2019-03-28T20:22:17.786Z,7.90
2019-03-28T20:24:47.479Z,7.80
2019-03-28T20:27:17.542Z,7.80
2019-03-28T20:29:52.606Z,7.70
2019-03-28T20:32:22.512Z,7.60
2019-03-28T20:34:58.696Z,7.60
2019-03-28T20:37:28.438Z,7.50
2019-03-28T20:39:59.192Z,7.50
2019-03-28T20:42:28.765Z,7.40
2019-03-28T20:44:58.737Z,7.40
2019-03-28T20:47:28.382Z,7.30
2019-03-28T20:49:58.108Z,7.30
2019-03-28T20:52:27.556Z,7.20
2019-03-28T20:54:57.067Z,7.10
2019-03-28T20:57:26.874Z,7.10
2019-03-28T20:59:57.264Z,7.00
2019-03-28T21:02:27.125Z,7.00
2019-03-28T21:04:57.145Z,6.90
2019-03-28T21:07:27.334Z,6.90
2019-03-28T21:09:57.127Z,6.80
2019-03-28T21:12:28.795Z,6.70
2019-03-28T21:14:58.381Z,6.70
2019-03-28T21:17:28.325Z,6.70
2019-03-28T21:19:57.937Z,6.70
2019-03-28T21:22:31.596Z,6.70
2019-03-28T21:25:01.179Z,6.70
2019-03-28T21:27:32.259Z,6.70
2019-03-28T21:30:02.460Z,6.60
2019-03-28T21:32:35.244Z,6.60
2019-03-28T21:35:12.251Z,6.60
2019-03-28T21:37:45.002Z,6.50
2019-03-28T21:40:14.818Z,6.50
2019-03-28T21:45:20.911Z,6.60
2019-03-28T21:47:56.097Z,6.60
2019-03-28T21:50:25.639Z,6.60
2019-03-28T21:52:58.814Z,6.50
2019-03-28T21:55:28.459Z,6.40
2019-03-28T21:57:58.192Z,6.40
2019-03-28T22:00:27.810Z,6.30
2019-03-28T22:02:57.383Z,6.30
2019-03-28T22:05:28.856Z,6.30
2019-03-28T22:07:58.385Z,6.30
2019-03-28T22:10:28.494Z,6.20
2019-03-28T22:13:01.156Z,6.20
2019-03-28T22:15:31.707Z,6.10
2019-03-28T22:18:02.055Z,6.10
2019-03-28T22:20:31.929Z,6.00
2019-03-28T22:23:01.449Z,6.00
2019-03-28T22:25:31.305Z,6.00
2019-03-28T22:28:01.323Z,6.00
2019-03-28T22:30:31.091Z,5.90
2019-03-28T22:33:03.116Z,5.90
2019-03-28T22:35:33.045Z,5.90
2019-03-28T22:38:04.068Z,5.80
2019-03-28T22:40:33.827Z,5.80
2019-03-28T22:43:05.188Z,5.90
2019-03-28T22:45:36.870Z,5.80
2019-03-28T22:48:11.187Z,5.80
2019-03-28T22:50:41.003Z,5.80
2019-03-28T22:53:11.990Z,5.70
2019-03-28T22:55:41.635Z,5.70
2019-03-28T22:58:11.743Z,5.70
2019-03-28T23:00:47.470Z,5.70
2019-03-28T23:03:18.043Z,5.70
2019-03-28T23:05:48.632Z,5.70
2019-03-28T23:08:19.040Z,5.70
2019-03-28T23:10:49.044Z,5.70
2019-03-28T23:13:18.946Z,5.60
2019-03-28T23:15:48.490Z,5.60
2019-03-28T23:18:18.551Z,5.60
2019-03-28T23:20:50.099Z,5.60
2019-03-28T23:23:19.872Z,5.50
2019-03-28T23:25:49.411Z,5.50
2019-03-28T23:28:19.216Z,5.50
2019-03-28T23:30:49.326Z,5.50
2019-03-28T23:33:19.119Z,5.50
2019-03-28T23:35:51.843Z,5.50
2019-03-28T23:38:21.396Z,5.40
2019-03-28T23:40:50.834Z,5.40
2019-03-28T23:43:25.190Z,5.30
2019-03-28T23:45:56.269Z,5.30
2019-03-28T23:48:25.979Z,5.20
2019-03-28T23:50:55.478Z,5.30
2019-03-28T23:53:24.984Z,5.20
2019-03-28T23:55:56.843Z,5.20
2019-03-28T23:58:26.758Z,5.20
